Back to Top

Language: 

My Weather Underground Personal Weather Station Historical Data with Graphs...

Delerius Weather Station Historical Data
Daily Summary for January 23, 2018 Units:  Both    English   Metric
« Previous Day
Next Day »
Daily Weekly Monthly Yearly Custom
  High: Low: Average:
Temperature: 55.9 °F /  13.3 °C 43.3 °F /  6.3 °C 49.8 °F /  9.9 °C
Dew Point: 51.2 °F /  10.7 °C 37.6 °F /  3.1 °C 45.1 °F /  7.3 °C
Humidity: 92 % 76 % 84 %
Wind Speed: 22.0 mph /  35.4 km/h - 9.1 mph /  14.6 km/h
Wind Gust: 35.0 mph /  56.3 km/h - -
Wind:- - SSW
Pressure: 29.94 in /  1013.8 hPa 29.68 in /  1005 hPa -
Precipitation: 0.00 in /  0 mm    
Historical Graphs
 
 
Tabular Data for January 23, 2018
Time Temperature Dew Point Pressure Wind Wind Speed Wind Gust Humidity Rainfall Rate (Hourly) solar Conditions
00:00 44.2 °F /  6.8 °C 37.8 °F /  3.2 °C 29.93 in /  1013.4 hPa ENE 1.0 mph /  1.6 km/h 4.0 mph /  6.4 km/h 78 % 0.00 in /  0 mm 0 W/m2
00:05 44.2 °F /  6.8 °C 37.8 °F /  3.2 °C 29.93 in /  1013.4 hPa Calm   3.0 mph /  4.8 km/h 78 % 0.00 in /  0 mm 0 W/m2
00:10 44.2 °F /  6.8 °C 37.8 °F /  3.2 °C 29.93 in /  1013.4 hPa Calm     78 % 0.00 in /  0 mm 0 W/m2
00:15 44.1 °F /  6.7 °C 38.0 °F /  3.3 °C 29.94 in /  1013.8 hPa Calm   1.0 mph /  1.6 km/h 79 % 0.00 in /  0 mm 0 W/m2
00:20 43.9 °F /  6.6 °C 37.8 °F /  3.2 °C 29.94 in /  1013.8 hPa Calm   2.0 mph /  3.2 km/h 79 % 0.00 in /  0 mm 0 W/m2
00:25 43.9 °F /  6.6 °C 37.8 °F /  3.2 °C 29.93 in /  1013.4 hPa WNW 2.0 mph /  3.2 km/h 8.0 mph /  12.9 km/h 79 % 0.00 in /  0 mm 0 W/m2
00:30 43.5 °F /  6.4 °C 37.8 °F /  3.2 °C 29.93 in /  1013.4 hPa Calm     80 % 0.00 in /  0 mm 0 W/m2
00:35 43.3 °F /  6.3 °C 37.6 °F /  3.1 °C 29.94 in /  1013.8 hPa Calm   1.0 mph /  1.6 km/h 80 % 0.00 in /  0 mm 0 W/m2
00:40 43.3 °F /  6.3 °C 37.9 °F /  3.3 °C 29.94 in /  1013.8 hPa WNW 4.0 mph /  6.4 km/h 7.0 mph /  11.3 km/h 81 % 0.00 in /  0 mm 0 W/m2
00:45 43.5 °F /  6.4 °C 38.1 °F /  3.4 °C 29.93 in /  1013.4 hPa WNW 3.0 mph /  4.8 km/h 7.0 mph /  11.3 km/h 81 % 0.00 in /  0 mm 0 W/m2
00:55 44.1 °F /  6.7 °C 38.6 °F /  3.7 °C 29.93 in /  1013.4 hPa SSW 1.0 mph /  1.6 km/h 5.0 mph /  8 km/h 81 % 0.00 in /  0 mm 0 W/m2
01:05 43.9 °F /  6.6 °C 38.1 °F /  3.4 °C 29.92 in /  1013.1 hPa Calm     80 % 0.00 in /  0 mm 0 W/m2
01:10 43.9 °F /  6.6 °C 38.1 °F /  3.4 °C 29.92 in /  1013.1 hPa Calm   1.0 mph /  1.6 km/h 80 % 0.00 in /  0 mm 0 W/m2
01:25 43.9 °F /  6.6 °C 38.4 °F /  3.6 °C 29.92 in /  1013.1 hPa SW 2.0 mph /  3.2 km/h 5.0 mph /  8 km/h 81 % 0.00 in /  0 mm 0 W/m2
01:30 43.9 °F /  6.6 °C 38.4 °F /  3.6 °C 29.92 in /  1013.1 hPa Calm   2.0 mph /  3.2 km/h 81 % 0.00 in /  0 mm 0 W/m2
01:35 43.9 °F /  6.6 °C 38.4 °F /  3.6 °C 29.92 in /  1013.1 hPa WSW 1.0 mph /  1.6 km/h 4.0 mph /  6.4 km/h 81 % 0.00 in /  0 mm 0 W/m2
01:40 43.9 °F /  6.6 °C 38.7 °F /  3.7 °C 29.92 in /  1013.1 hPa Calm   2.0 mph /  3.2 km/h 82 % 0.00 in /  0 mm 0 W/m2
01:55 43.9 °F /  6.6 °C 39.1 °F /  3.9 °C 29.93 in /  1013.4 hPa Calm   4.0 mph /  6.4 km/h 83 % 0.00 in /  0 mm 0 W/m2
02:00 43.9 °F /  6.6 °C 39.1 °F /  3.9 °C 29.92 in /  1013.1 hPa Calm   1.0 mph /  1.6 km/h 83 % 0.00 in /  0 mm 0 W/m2
02:05 43.9 °F /  6.6 °C 39.1 °F /  3.9 °C 29.92 in /  1013.1 hPa Calm   1.0 mph /  1.6 km/h 83 % 0.00 in /  0 mm 0 W/m2
02:10 44.1 °F /  6.7 °C 39.8 °F /  4.3 °C 29.92 in /  1013.1 hPa SW 3.0 mph /  4.8 km/h 9.0 mph /  14.5 km/h 85 % 0.00 in /  0 mm 0 W/m2
02:15 44.4 °F /  6.9 °C 39.9 °F /  4.4 °C 29.91 in /  1012.8 hPa Calm   2.0 mph /  3.2 km/h 84 % 0.00 in /  0 mm 0 W/m2
02:21 44.4 °F /  6.9 °C 39.9 °F /  4.4 °C 29.92 in /  1013.1 hPa ESE 1.0 mph /  1.6 km/h 4.0 mph /  6.4 km/h 84 % 0.00 in /  0 mm 0 W/m2
02:31 44.8 °F /  7.1 °C 40.2 °F /  4.6 °C 29.92 in /  1013.1 hPa WSW 1.0 mph /  1.6 km/h 2.0 mph /  3.2 km/h 84 % 0.00 in /  0 mm 0 W/m2
02:36 45.0 °F /  7.2 °C 40.4 °F /  4.7 °C 29.91 in /  1012.8 hPa SSE 1.0 mph /  1.6 km/h 4.0 mph /  6.4 km/h 84 % 0.00 in /  0 mm 0 W/m2
02:41 45.0 °F /  7.2 °C 40.4 °F /  4.7 °C 29.91 in /  1012.8 hPa SSE 2.0 mph /  3.2 km/h 5.0 mph /  8 km/h 84 % 0.00 in /  0 mm 0 W/m2
02:46 44.8 °F /  7.1 °C 40.2 °F /  4.6 °C 29.91 in /  1012.8 hPa Calm   1.0 mph /  1.6 km/h 84 % 0.00 in /  0 mm 0 W/m2
02:51 44.8 °F /  7.1 °C 40.2 °F /  4.6 °C 29.91 in /  1012.8 hPa SE 1.0 mph /  1.6 km/h 5.0 mph /  8 km/h 84 % 0.00 in /  0 mm 0 W/m2
02:56 44.8 °F /  7.1 °C 40.5 °F /  4.7 °C 29.90 in /  1012.4 hPa SW 2.0 mph /  3.2 km/h 5.0 mph /  8 km/h 85 % 0.00 in /  0 mm 0 W/m2
03:01 44.8 °F /  7.1 °C 40.5 °F /  4.7 °C 29.89 in /  1012.1 hPa SSE 3.0 mph /  4.8 km/h 7.0 mph /  11.3 km/h 85 % 0.00 in /  0 mm 0 W/m2
03:11 45.1 °F /  7.3 °C 41.2 °F /  5.1 °C 29.89 in /  1012.1 hPa SW 4.0 mph /  6.4 km/h 9.0 mph /  14.5 km/h 86 % 0.00 in /  0 mm 0 W/m2
03:16 45.3 °F /  7.4 °C 41.4 °F /  5.2 °C 29.88 in /  1011.7 hPa SSW 7.0 mph /  11.3 km/h 11.0 mph /  17.7 km/h 86 % 0.00 in /  0 mm 0 W/m2
03:36 46.0 °F /  7.8 °C 41.8 °F /  5.4 °C 29.89 in /  1012.1 hPa South 8.0 mph /  12.9 km/h 12.0 mph /  19.3 km/h 85 % 0.00 in /  0 mm 0 W/m2
03:41 46.0 °F /  7.8 °C 41.8 °F /  5.4 °C 29.88 in /  1011.7 hPa South 8.0 mph /  12.9 km/h 13.0 mph /  20.9 km/h 85 % 0.00 in /  0 mm 0 W/m2
03:46 45.9 °F /  7.7 °C 41.6 °F /  5.3 °C 29.88 in /  1011.7 hPa South 7.0 mph /  11.3 km/h 13.0 mph /  20.9 km/h 85 % 0.00 in /  0 mm 0 W/m2
03:51 46.0 °F /  7.8 °C 41.8 °F /  5.4 °C 29.88 in /  1011.7 hPa South 8.0 mph /  12.9 km/h 13.0 mph /  20.9 km/h 85 % 0.00 in /  0 mm 0 W/m2
03:56 46.0 °F /  7.8 °C 41.8 °F /  5.4 °C 29.88 in /  1011.7 hPa South 6.0 mph /  9.7 km/h 13.0 mph /  20.9 km/h 85 % 0.00 in /  0 mm 0 W/m2
04:06 46.2 °F /  7.9 °C 42.0 °F /  5.6 °C 29.87 in /  1011.4 hPa SE 8.0 mph /  12.9 km/h 13.0 mph /  20.9 km/h 85 % 0.00 in /  0 mm 0 W/m2
04:11 46.2 °F /  7.9 °C 42.0 °F /  5.6 °C 29.87 in /  1011.4 hPa SE 7.0 mph /  11.3 km/h 12.0 mph /  19.3 km/h 85 % 0.00 in /  0 mm 0 W/m2
04:16 46.2 °F /  7.9 °C 42.0 °F /  5.6 °C 29.87 in /  1011.4 hPa SE 5.0 mph /  8 km/h 9.0 mph /  14.5 km/h 85 % 0.00 in /  0 mm 0 W/m2
04:21 46.2 °F /  7.9 °C 42.0 °F /  5.6 °C 29.86 in /  1011.1 hPa SSE 6.0 mph /  9.7 km/h 9.0 mph /  14.5 km/h 85 % 0.00 in /  0 mm 0 W/m2
04:26 46.0 °F /  7.8 °C 41.8 °F /  5.4 °C 29.86 in /  1011.1 hPa SE 5.0 mph /  8 km/h 8.0 mph /  12.9 km/h 85 % 0.00 in /  0 mm 0 W/m2
04:31 46.0 °F /  7.8 °C 42.1 °F /  5.6 °C 29.86 in /  1011.1 hPa SE 7.0 mph /  11.3 km/h 10.0 mph /  16.1 km/h 86 % 0.00 in /  0 mm 0 W/m2
04:36 46.0 °F /  7.8 °C 42.1 °F /  5.6 °C 29.86 in /  1011.1 hPa SE 5.0 mph /  8 km/h 7.0 mph /  11.3 km/h 86 % 0.00 in /  0 mm 0 W/m2
04:41 46.0 °F /  7.8 °C 42.1 °F /  5.6 °C 29.86 in /  1011.1 hPa ESE 3.0 mph /  4.8 km/h 7.0 mph /  11.3 km/h 86 % 0.00 in /  0 mm 0 W/m2
04:46 46.0 °F /  7.8 °C 42.1 °F /  5.6 °C 29.86 in /  1011.1 hPa SE 6.0 mph /  9.7 km/h 9.0 mph /  14.5 km/h 86 % 0.00 in /  0 mm 0 W/m2
04:51 46.0 °F /  7.8 °C 42.1 °F /  5.6 °C 29.86 in /  1011.1 hPa SE 5.0 mph /  8 km/h 8.0 mph /  12.9 km/h 86 % 0.00 in /  0 mm 0 W/m2
04:56 46.2 °F /  7.9 °C 42.6 °F /  5.9 °C 29.86 in /  1011.1 hPa ESE 1.0 mph /  1.6 km/h 7.0 mph /  11.3 km/h 87 % 0.00 in /  0 mm 0 W/m2
05:01 46.2 °F /  7.9 °C 42.6 °F /  5.9 °C 29.86 in /  1011.1 hPa ESE 4.0 mph /  6.4 km/h 8.0 mph /  12.9 km/h 87 % 0.00 in /  0 mm 0 W/m2
05:17 46.0 °F /  7.8 °C 42.1 °F /  5.6 °C 29.84 in /  1010.4 hPa SE 6.0 mph /  9.7 km/h 10.0 mph /  16.1 km/h 86 % 0.00 in /  0 mm 0 W/m2
05:22 46.0 °F /  7.8 °C 42.4 °F /  5.8 °C 29.84 in /  1010.4 hPa South 5.0 mph /  8 km/h 8.0 mph /  12.9 km/h 87 % 0.00 in /  0 mm 0 W/m2
05:27 46.0 °F /  7.8 °C 42.4 °F /  5.8 °C 29.84 in /  1010.4 hPa South 6.0 mph /  9.7 km/h 10.0 mph /  16.1 km/h 87 % 0.00 in /  0 mm 0 W/m2
05:37 46.2 °F /  7.9 °C 42.9 °F /  6.1 °C 29.83 in /  1010 hPa South 5.0 mph /  8 km/h 13.0 mph /  20.9 km/h 88 % 0.00 in /  0 mm 0 W/m2
05:42 46.2 °F /  7.9 °C 42.9 °F /  6.1 °C 29.83 in /  1010 hPa SE 5.0 mph /  8 km/h 8.0 mph /  12.9 km/h 88 % 0.00 in /  0 mm 0 W/m2
05:47 46.2 °F /  7.9 °C 42.9 °F /  6.1 °C 29.83 in /  1010 hPa SSE 5.0 mph /  8 km/h 8.0 mph /  12.9 km/h 88 % 0.00 in /  0 mm 0 W/m2
05:52 46.2 °F /  7.9 °C 42.9 °F /  6.1 °C 29.83 in /  1010 hPa South 5.0 mph /  8 km/h 11.0 mph /  17.7 km/h 88 % 0.00 in /  0 mm 0 W/m2
06:02 46.4 °F /  8 °C 43.0 °F /  6.1 °C 29.83 in /  1010 hPa South 1.0 mph /  1.6 km/h 5.0 mph /  8 km/h 88 % 0.00 in /  0 mm 0 W/m2
06:07 46.4 °F /  8 °C 43.0 °F /  6.1 °C 29.83 in /  1010 hPa SE 2.0 mph /  3.2 km/h 7.0 mph /  11.3 km/h 88 % 0.00 in /  0 mm 0 W/m2
06:12 46.4 °F /  8 °C 43.3 °F /  6.3 °C 29.82 in /  1009.7 hPa SSW 5.0 mph /  8 km/h 9.0 mph /  14.5 km/h 89 % 0.00 in /  0 mm 0 W/m2
06:17 46.6 °F /  8.1 °C 43.5 °F /  6.4 °C 29.82 in /  1009.7 hPa SSW 6.0 mph /  9.7 km/h 11.0 mph /  17.7 km/h 89 % 0.00 in /  0 mm 0 W/m2
06:22 46.4 °F /  8 °C 43.3 °F /  6.3 °C 29.81 in /  1009.4 hPa SE 2.0 mph /  3.2 km/h 4.0 mph /  6.4 km/h 89 % 0.00 in /  0 mm 0 W/m2
06:27 46.4 °F /  8 °C 43.3 °F /  6.3 °C 29.81 in /  1009.4 hPa SSE 5.0 mph /  8 km/h 9.0 mph /  14.5 km/h 89 % 0.00 in /  0 mm 0 W/m2
06:32 46.4 °F /  8 °C 43.3 °F /  6.3 °C 29.80 in /  1009 hPa SE 3.0 mph /  4.8 km/h 7.0 mph /  11.3 km/h 89 % 0.00 in /  0 mm 0 W/m2
06:42 46.6 °F /  8.1 °C 43.8 °F /  6.6 °C 29.80 in /  1009 hPa SSW 10.0 mph /  16.1 km/h 16.0 mph /  25.7 km/h 90 % 0.00 in /  0 mm 0 W/m2
06:47 46.8 °F /  8.2 °C 44.0 °F /  6.7 °C 29.79 in /  1008.7 hPa SW 9.0 mph /  14.5 km/h 15.0 mph /  24.1 km/h 90 % 0.00 in /  0 mm 0 W/m2
06:52 46.9 °F /  8.3 °C 44.2 °F /  6.8 °C 29.79 in /  1008.7 hPa SW 10.0 mph /  16.1 km/h 18.0 mph /  29 km/h 90 % 0.00 in /  0 mm 0 W/m2
06:57 47.1 °F /  8.4 °C 44.3 °F /  6.8 °C 29.79 in /  1008.7 hPa SW 10.0 mph /  16.1 km/h 15.0 mph /  24.1 km/h 90 % 0.00 in /  0 mm 0 W/m2
07:02 47.1 °F /  8.4 °C 44.3 °F /  6.8 °C 29.79 in /  1008.7 hPa SW 11.0 mph /  17.7 km/h 22.0 mph /  35.4 km/h 90 % 0.00 in /  0 mm 0 W/m2
07:07 47.1 °F /  8.4 °C 44.3 °F /  6.8 °C 29.79 in /  1008.7 hPa SW 15.0 mph /  24.1 km/h 25.0 mph /  40.2 km/h 90 % 0.00 in /  0 mm 0 W/m2
07:12 47.1 °F /  8.4 °C 44.3 °F /  6.8 °C 29.78 in /  1008.4 hPa SW 13.0 mph /  20.9 km/h 21.0 mph /  33.8 km/h 90 % 0.00 in /  0 mm 0 W/m2
07:17 46.9 °F /  8.3 °C 44.4 °F /  6.9 °C 29.78 in /  1008.4 hPa SW 13.0 mph /  20.9 km/h 25.0 mph /  40.2 km/h 91 % 0.00 in /  0 mm 0 W/m2
07:22 46.9 °F /  8.3 °C 44.4 °F /  6.9 °C 29.78 in /  1008.4 hPa SW 15.0 mph /  24.1 km/h 23.0 mph /  37 km/h 91 % 0.00 in /  0 mm 0 W/m2
07:27 46.9 °F /  8.3 °C 44.4 °F /  6.9 °C 29.78 in /  1008.4 hPa SW 15.0 mph /  24.1 km/h 28.0 mph /  45.1 km/h 91 % 0.00 in /  0 mm 0 W/m2
07:37 46.9 °F /  8.3 °C 44.4 °F /  6.9 °C 29.78 in /  1008.4 hPa SW 15.0 mph /  24.1 km/h 22.0 mph /  35.4 km/h 91 % 0.00 in /  0 mm 0 W/m2
07:47 47.1 °F /  8.4 °C 44.6 °F /  7 °C 29.78 in /  1008.4 hPa SW 19.0 mph /  30.6 km/h 28.0 mph /  45.1 km/h 91 % 0.00 in /  0 mm 0 W/m2
07:52 46.9 °F /  8.3 °C 44.4 °F /  6.9 °C 29.78 in /  1008.4 hPa SW 17.0 mph /  27.4 km/h 23.0 mph /  37 km/h 91 % 0.00 in /  0 mm 0 W/m2
07:57 47.1 °F /  8.4 °C 44.6 °F /  7 °C 29.78 in /  1008.4 hPa SW 17.0 mph /  27.4 km/h 26.0 mph /  41.8 km/h 91 % 0.00 in /  0 mm 0 W/m2
08:02 46.9 °F /  8.3 °C 44.4 °F /  6.9 °C 29.78 in /  1008.4 hPa SSW 15.0 mph /  24.1 km/h 21.0 mph /  33.8 km/h 91 % 0.00 in /  0 mm 0 W/m2
08:12 47.1 °F /  8.4 °C 44.9 °F /  7.2 °C 29.78 in /  1008.4 hPa SW 16.0 mph /  25.7 km/h 22.0 mph /  35.4 km/h 92 % 0.00 in /  0 mm 0 W/m2
08:17 47.1 °F /  8.4 °C 44.9 °F /  7.2 °C 29.78 in /  1008.4 hPa SW 15.0 mph /  24.1 km/h 25.0 mph /  40.2 km/h 92 % 0.00 in /  0 mm 5 W/m2
08:22 47.1 °F /  8.4 °C 44.9 °F /  7.2 °C 29.78 in /  1008.4 hPa SW 13.0 mph /  20.9 km/h 18.0 mph /  29 km/h 92 % 0.00 in /  0 mm 5 W/m2
08:32 47.5 °F /  8.6 °C 45.3 °F /  7.4 °C 29.78 in /  1008.4 hPa SSW 14.0 mph /  22.5 km/h 22.0 mph /  35.4 km/h 92 % 0.00 in /  0 mm 11 W/m2
08:37 47.5 °F /  8.6 °C 45.3 °F /  7.4 °C 29.78 in /  1008.4 hPa SSW 11.0 mph /  17.7 km/h 19.0 mph /  30.6 km/h 92 % 0.00 in /  0 mm 14 W/m2
08:42 47.5 °F /  8.6 °C 45.3 °F /  7.4 °C 29.78 in /  1008.4 hPa SSW 12.0 mph /  19.3 km/h 15.0 mph /  24.1 km/h 92 % 0.00 in /  0 mm 16 W/m2
08:47 47.5 °F /  8.6 °C 45.3 °F /  7.4 °C 29.78 in /  1008.4 hPa SSW 10.0 mph /  16.1 km/h 15.0 mph /  24.1 km/h 92 % 0.00 in /  0 mm 14 W/m2
08:52 47.5 °F /  8.6 °C 45.3 °F /  7.4 °C 29.78 in /  1008.4 hPa SSW 11.0 mph /  17.7 km/h 16.0 mph /  25.7 km/h 92 % 0.00 in /  0 mm 18 W/m2
08:58 47.8 °F /  8.8 °C 45.6 °F /  7.6 °C 29.78 in /  1008.4 hPa SSW 13.0 mph /  20.9 km/h 18.0 mph /  29 km/h 92 % 0.00 in /  0 mm 26 W/m2
09:03 47.8 °F /  8.8 °C 45.6 °F /  7.6 °C 29.77 in /  1008 hPa SSW 13.0 mph /  20.9 km/h 20.0 mph /  32.2 km/h 92 % 0.00 in /  0 mm 33 W/m2
09:13 48.4 °F /  9.1 °C 46.2 °F /  7.9 °C 29.76 in /  1007.7 hPa SSW 13.0 mph /  20.9 km/h 18.0 mph /  29 km/h 92 % 0.00 in /  0 mm 60 W/m2
09:18 48.6 °F /  9.2 °C 46.3 °F /  7.9 °C 29.77 in /  1008 hPa SSW 13.0 mph /  20.9 km/h 20.0 mph /  32.2 km/h 92 % 0.00 in /  0 mm 63 W/m2
09:23 48.7 °F /  9.3 °C 46.5 °F /  8.1 °C 29.76 in /  1007.7 hPa SSW 11.0 mph /  17.7 km/h 16.0 mph /  25.7 km/h 92 % 0.00 in /  0 mm 62 W/m2
09:28 48.9 °F /  9.4 °C 46.7 °F /  8.2 °C 29.77 in /  1008 hPa SSW 11.0 mph /  17.7 km/h 19.0 mph /  30.6 km/h 92 % 0.00 in /  0 mm 79 W/m2
09:33 49.3 °F /  9.6 °C 47.1 °F /  8.4 °C 29.76 in /  1007.7 hPa South 10.0 mph /  16.1 km/h 15.0 mph /  24.1 km/h 92 % 0.00 in /  0 mm 60 W/m2
09:38 49.5 °F /  9.7 °C 47.2 °F /  8.4 °C 29.76 in /  1007.7 hPa SSW 10.0 mph /  16.1 km/h 15.0 mph /  24.1 km/h 92 % 0.00 in /  0 mm 58 W/m2
09:43 49.6 °F /  9.8 °C 47.4 °F /  8.6 °C 29.76 in /  1007.7 hPa SSW 8.0 mph /  12.9 km/h 13.0 mph /  20.9 km/h 92 % 0.00 in /  0 mm 69 W/m2
09:48 49.6 °F /  9.8 °C 47.4 °F /  8.6 °C 29.76 in /  1007.7 hPa South 10.0 mph /  16.1 km/h 15.0 mph /  24.1 km/h 92 % 0.00 in /  0 mm 49 W/m2
09:58 50.0 °F /  10 °C 47.5 °F /  8.6 °C 29.76 in /  1007.7 hPa South 7.0 mph /  11.3 km/h 11.0 mph /  17.7 km/h 91 % 0.00 in /  0 mm 25 W/m2
10:08 50.2 °F /  10.1 °C 47.7 °F /  8.7 °C 29.76 in /  1007.7 hPa SSE 9.0 mph /  14.5 km/h 15.0 mph /  24.1 km/h 91 % 0.00 in /  0 mm 33 W/m2
10:13 50.2 °F /  10.1 °C 47.7 °F /  8.7 °C 29.75 in /  1007.3 hPa SSE 9.0 mph /  14.5 km/h 13.0 mph /  20.9 km/h 91 % 0.00 in /  0 mm 28 W/m2
10:18 50.2 °F /  10.1 °C 47.9 °F /  8.8 °C 29.75 in /  1007.3 hPa SE 8.0 mph /  12.9 km/h 12.0 mph /  19.3 km/h 92 % 0.00 in /  0 mm 28 W/m2
10:23 50.4 °F /  10.2 °C 48.1 °F /  8.9 °C 29.75 in /  1007.3 hPa SSE 10.0 mph /  16.1 km/h 14.0 mph /  22.5 km/h 92 % 0.00 in /  0 mm 28 W/m2
10:28 50.5 °F /  10.3 °C 48.3 °F /  9.1 °C 29.75 in /  1007.3 hPa SSE 9.0 mph /  14.5 km/h 14.0 mph /  22.5 km/h 92 % 0.00 in /  0 mm 19 W/m2
10:38 50.7 °F /  10.4 °C 48.2 °F /  9 °C 29.74 in /  1007 hPa SSE 8.0 mph /  12.9 km/h 12.0 mph /  19.3 km/h 91 % 0.00 in /  0 mm 23 W/m2
10:48 51.1 °F /  10.6 °C 48.8 °F /  9.3 °C 29.74 in /  1007 hPa SSE 7.0 mph /  11.3 km/h 10.0 mph /  16.1 km/h 92 % 0.00 in /  0 mm 21 W/m2
10:53 51.1 °F /  10.6 °C 48.8 °F /  9.3 °C 29.74 in /  1007 hPa SSE 6.0 mph /  9.7 km/h 10.0 mph /  16.1 km/h 92 % 0.00 in /  0 mm 26 W/m2
10:58 51.3 °F /  10.7 °C 49.0 °F /  9.4 °C 29.74 in /  1007 hPa SSE 8.0 mph /  12.9 km/h 15.0 mph /  24.1 km/h 92 % 0.00 in /  0 mm 21 W/m2
11:03 51.4 °F /  10.8 °C 49.2 °F /  9.6 °C 29.73 in /  1006.7 hPa South 7.0 mph /  11.3 km/h 16.0 mph /  25.7 km/h 92 % 0.00 in /  0 mm 19 W/m2
11:08 51.8 °F /  11 °C 49.5 °F /  9.7 °C 29.73 in /  1006.7 hPa South 9.0 mph /  14.5 km/h 15.0 mph /  24.1 km/h 92 % 0.00 in /  0 mm 32 W/m2
11:13 52.2 °F /  11.2 °C 49.6 °F /  9.8 °C 29.72 in /  1006.3 hPa South 8.0 mph /  12.9 km/h 12.0 mph /  19.3 km/h 91 % 0.00 in /  0 mm 42 W/m2
11:18 52.3 °F /  11.3 °C 49.8 °F /  9.9 °C 29.72 in /  1006.3 hPa SSW 8.0 mph /  12.9 km/h 16.0 mph /  25.7 km/h 91 % 0.00 in /  0 mm 28 W/m2
11:23 52.5 °F /  11.4 °C 50.0 °F /  10 °C 29.72 in /  1006.3 hPa SSW 6.0 mph /  9.7 km/h 11.0 mph /  17.7 km/h 91 % 0.00 in /  0 mm 51 W/m2
11:28 52.9 °F /  11.6 °C 50.0 °F /  10 °C 29.72 in /  1006.3 hPa SSW 16.0 mph /  25.7 km/h 27.0 mph /  43.5 km/h 90 % 0.00 in /  0 mm 72 W/m2
11:38 53.2 °F /  11.8 °C 50.1 °F /  10.1 °C 29.71 in /  1006 hPa SSW 9.0 mph /  14.5 km/h 14.0 mph /  22.5 km/h 89 % 0.00 in /  0 mm 81 W/m2
11:43 53.4 °F /  11.9 °C 50.3 °F /  10.2 °C 29.71 in /  1006 hPa SW 11.0 mph /  17.7 km/h 19.0 mph /  30.6 km/h 89 % 0.00 in /  0 mm 118 W/m2
11:48 53.8 °F /  12.1 °C 50.3 °F /  10.2 °C 29.71 in /  1006 hPa SSW 14.0 mph /  22.5 km/h 24.0 mph /  38.6 km/h 88 % 0.00 in /  0 mm 128 W/m2
11:53 54.1 °F /  12.3 °C 50.7 °F /  10.4 °C 29.71 in /  1006 hPa SW 9.0 mph /  14.5 km/h 18.0 mph /  29 km/h 88 % 0.00 in /  0 mm 98 W/m2
11:58 54.3 °F /  12.4 °C 50.5 °F /  10.3 °C 29.71 in /  1006 hPa WSW 12.0 mph /  19.3 km/h 23.0 mph /  37 km/h 87 % 0.00 in /  0 mm 380 W/m2
12:03 55.0 °F /  12.8 °C 51.2 °F /  10.7 °C 29.71 in /  1006 hPa WSW 6.0 mph /  9.7 km/h 10.0 mph /  16.1 km/h 87 % 0.00 in /  0 mm 446 W/m2
12:08 55.6 °F /  13.1 °C 51.1 °F /  10.6 °C 29.71 in /  1006 hPa WSW 6.0 mph /  9.7 km/h 11.0 mph /  17.7 km/h 85 % 0.00 in /  0 mm 183 W/m2
12:19 55.9 °F /  13.3 °C 50.2 °F /  10.1 °C 29.70 in /  1005.6 hPa WSW 14.0 mph /  22.5 km/h 25.0 mph /  40.2 km/h 81 % 0.00 in /  0 mm 320 W/m2
12:24 55.9 °F /  13.3 °C 50.2 °F /  10.1 °C 29.71 in /  1006 hPa WSW 18.0 mph /  29 km/h 28.0 mph /  45.1 km/h 81 % 0.00 in /  0 mm 257 W/m2
12:29 55.8 °F /  13.2 °C 49.7 °F /  9.8 °C 29.71 in /  1006 hPa SW 14.0 mph /  22.5 km/h 24.0 mph /  38.6 km/h 80 % 0.00 in /  0 mm 257 W/m2
12:39 55.9 °F /  13.3 °C 49.9 °F /  9.9 °C 29.70 in /  1005.6 hPa WSW 14.0 mph /  22.5 km/h 23.0 mph /  37 km/h 80 % 0.00 in /  0 mm 128 W/m2
12:44 55.8 °F /  13.2 °C 49.7 °F /  9.8 °C 29.70 in /  1005.6 hPa SW 10.0 mph /  16.1 km/h 24.0 mph /  38.6 km/h 80 % 0.00 in /  0 mm 329 W/m2
12:49 55.9 °F /  13.3 °C 49.9 °F /  9.9 °C 29.70 in /  1005.6 hPa SW 12.0 mph /  19.3 km/h 23.0 mph /  37 km/h 80 % 0.00 in /  0 mm 279 W/m2
12:54 55.9 °F /  13.3 °C 49.5 °F /  9.7 °C 29.70 in /  1005.6 hPa SW 11.0 mph /  17.7 km/h 16.0 mph /  25.7 km/h 79 % 0.00 in /  0 mm 153 W/m2
12:59 55.8 °F /  13.2 °C 49.3 °F /  9.6 °C 29.70 in /  1005.6 hPa WSW 10.0 mph /  16.1 km/h 22.0 mph /  35.4 km/h 79 % 0.00 in /  0 mm 105 W/m2
13:04 55.6 °F /  13.1 °C 49.5 °F /  9.7 °C 29.70 in /  1005.6 hPa SW 12.0 mph /  19.3 km/h 22.0 mph /  35.4 km/h 80 % 0.00 in /  0 mm 343 W/m2
13:09 55.8 °F /  13.2 °C 49.7 °F /  9.8 °C 29.70 in /  1005.6 hPa SW 11.0 mph /  17.7 km/h 15.0 mph /  24.1 km/h 80 % 0.00 in /  0 mm 181 W/m2
13:14 55.9 °F /  13.3 °C 49.5 °F /  9.7 °C 29.69 in /  1005.3 hPa SW 12.0 mph /  19.3 km/h 19.0 mph /  30.6 km/h 79 % 0.00 in /  0 mm 137 W/m2
13:19 55.6 °F /  13.1 °C 49.5 °F /  9.7 °C 29.69 in /  1005.3 hPa WSW 13.0 mph /  20.9 km/h 21.0 mph /  33.8 km/h 80 % 0.00 in /  0 mm 246 W/m2
13:24 55.4 °F /  13 °C 49.3 °F /  9.6 °C 29.69 in /  1005.3 hPa SW 13.0 mph /  20.9 km/h 21.0 mph /  33.8 km/h 80 % 0.00 in /  0 mm 142 W/m2
13:29 55.2 °F /  12.9 °C 49.2 °F /  9.6 °C 29.69 in /  1005.3 hPa WSW 12.0 mph /  19.3 km/h 22.0 mph /  35.4 km/h 80 % 0.00 in /  0 mm 93 W/m2
13:34 55.2 °F /  12.9 °C 49.5 °F /  9.7 °C 29.69 in /  1005.3 hPa WSW 10.0 mph /  16.1 km/h 18.0 mph /  29 km/h 81 % 0.00 in /  0 mm 123 W/m2
13:39 55.2 °F /  12.9 °C 49.5 °F /  9.7 °C 29.68 in /  1005 hPa WSW 12.0 mph /  19.3 km/h 23.0 mph /  37 km/h 81 % 0.00 in /  0 mm 132 W/m2
13:49 55.4 °F /  13 °C 49.3 °F /  9.6 °C 29.69 in /  1005.3 hPa SW 13.0 mph /  20.9 km/h 21.0 mph /  33.8 km/h 80 % 0.00 in /  0 mm 163 W/m2
13:54 55.6 °F /  13.1 °C 49.5 °F /  9.7 °C 29.68 in /  1005 hPa SW 19.0 mph /  30.6 km/h 29.0 mph /  46.7 km/h 80 % 0.00 in /  0 mm 260 W/m2
13:59 55.6 °F /  13.1 °C 49.5 °F /  9.7 °C 29.68 in /  1005 hPa SW 17.0 mph /  27.4 km/h 28.0 mph /  45.1 km/h 80 % 0.00 in /  0 mm 148 W/m2
14:04 55.4 °F /  13 °C 49.3 °F /  9.6 °C 29.68 in /  1005 hPa SW 16.0 mph /  25.7 km/h 25.0 mph /  40.2 km/h 80 % 0.00 in /  0 mm 229 W/m2
14:09 55.4 °F /  13 °C 49.7 °F /  9.8 °C 29.68 in /  1005 hPa WSW 14.0 mph /  22.5 km/h 23.0 mph /  37 km/h 81 % 0.00 in /  0 mm 216 W/m2
14:14 55.6 °F /  13.1 °C 49.8 °F /  9.9 °C 29.68 in /  1005 hPa WSW 11.0 mph /  17.7 km/h 19.0 mph /  30.6 km/h 81 % 0.00 in /  0 mm 232 W/m2
14:19 55.8 °F /  13.2 °C 49.7 °F /  9.8 °C 29.68 in /  1005 hPa WSW 19.0 mph /  30.6 km/h 27.0 mph /  43.5 km/h 80 % 0.00 in /  0 mm 214 W/m2
14:24 55.8 °F /  13.2 °C 49.7 °F /  9.8 °C 29.68 in /  1005 hPa WSW 14.0 mph /  22.5 km/h 24.0 mph /  38.6 km/h 80 % 0.00 in /  0 mm 185 W/m2
14:29 55.8 °F /  13.2 °C 49.7 °F /  9.8 °C 29.68 in /  1005 hPa SW 13.0 mph /  20.9 km/h 26.0 mph /  41.8 km/h 80 % 0.00 in /  0 mm 200 W/m2
14:34 55.6 °F /  13.1 °C 49.5 °F /  9.7 °C 29.68 in /  1005 hPa WSW 14.0 mph /  22.5 km/h 24.0 mph /  38.6 km/h 80 % 0.00 in /  0 mm 116 W/m2
14:39 55.6 °F /  13.1 °C 49.8 °F /  9.9 °C 29.68 in /  1005 hPa SW 14.0 mph /  22.5 km/h 26.0 mph /  41.8 km/h 81 % 0.00 in /  0 mm 116 W/m2
14:49 55.0 °F /  12.8 °C 49.6 °F /  9.8 °C 29.68 in /  1005 hPa SW 14.0 mph /  22.5 km/h 24.0 mph /  38.6 km/h 82 % 0.00 in /  0 mm 69 W/m2
14:55 54.9 °F /  12.7 °C 49.8 °F /  9.9 °C 29.68 in /  1005 hPa SW 11.0 mph /  17.7 km/h 24.0 mph /  38.6 km/h 83 % 0.00 in /  0 mm 76 W/m2
15:00 54.7 °F /  12.6 °C 49.6 °F /  9.8 °C 29.68 in /  1005 hPa WSW 12.0 mph /  19.3 km/h 26.0 mph /  41.8 km/h 83 % 0.00 in /  0 mm 74 W/m2
15:05 54.5 °F /  12.5 °C 49.8 °F /  9.9 °C 29.68 in /  1005 hPa WSW 8.0 mph /  12.9 km/h 18.0 mph /  29 km/h 84 % 0.00 in /  0 mm 69 W/m2
15:10 54.3 °F /  12.4 °C 49.6 °F /  9.8 °C 29.68 in /  1005 hPa WSW 12.0 mph /  19.3 km/h 20.0 mph /  32.2 km/h 84 % 0.00 in /  0 mm 47 W/m2
15:20 54.0 °F /  12.2 °C 49.9 °F /  9.9 °C 29.69 in /  1005.3 hPa WSW 13.0 mph /  20.9 km/h 20.0 mph /  32.2 km/h 86 % 0.00 in /  0 mm 42 W/m2
15:25 53.8 °F /  12.1 °C 49.7 °F /  9.8 °C 29.69 in /  1005.3 hPa SW 9.0 mph /  14.5 km/h 15.0 mph /  24.1 km/h 86 % 0.00 in /  0 mm 40 W/m2
15:30 53.8 °F /  12.1 °C 49.7 °F /  9.8 °C 29.69 in /  1005.3 hPa SW 12.0 mph /  19.3 km/h 18.0 mph /  29 km/h 86 % 0.00 in /  0 mm 42 W/m2
15:35 53.6 °F /  12 °C 49.8 °F /  9.9 °C 29.70 in /  1005.6 hPa WSW 11.0 mph /  17.7 km/h 16.0 mph /  25.7 km/h 87 % 0.00 in /  0 mm 63 W/m2
15:40 53.6 °F /  12 °C 49.8 °F /  9.9 °C 29.70 in /  1005.6 hPa WSW 9.0 mph /  14.5 km/h 13.0 mph /  20.9 km/h 87 % 0.00 in /  0 mm 44 W/m2
15:45 53.4 °F /  11.9 °C 49.6 °F /  9.8 °C 29.70 in /  1005.6 hPa SW 12.0 mph /  19.3 km/h 19.0 mph /  30.6 km/h 87 % 0.00 in /  0 mm 35 W/m2
15:55 53.6 °F /  12 °C 49.5 °F /  9.7 °C 29.70 in /  1005.6 hPa WSW 7.0 mph /  11.3 km/h 11.0 mph /  17.7 km/h 86 % 0.00 in /  0 mm 18 W/m2
16:00 53.8 °F /  12.1 °C 49.4 °F /  9.7 °C 29.70 in /  1005.6 hPa WSW 11.0 mph /  17.7 km/h 19.0 mph /  30.6 km/h 85 % 0.00 in /  0 mm 18 W/m2
16:05 53.8 °F /  12.1 °C 49.1 °F /  9.5 °C 29.70 in /  1005.6 hPa SW 11.0 mph /  17.7 km/h 15.0 mph /  24.1 km/h 84 % 0.00 in /  0 mm 21 W/m2
16:15 53.8 °F /  12.1 °C 48.7 °F /  9.3 °C 29.71 in /  1006 hPa SW 9.0 mph /  14.5 km/h 18.0 mph /  29 km/h 83 % 0.00 in /  0 mm 11 W/m2
16:20 53.8 °F /  12.1 °C 48.7 °F /  9.3 °C 29.71 in /  1006 hPa SW 11.0 mph /  17.7 km/h 20.0 mph /  32.2 km/h 83 % 0.00 in /  0 mm 5 W/m2
16:30 53.8 °F /  12.1 °C 48.4 °F /  9.1 °C 29.70 in /  1005.6 hPa WSW 10.0 mph /  16.1 km/h 16.0 mph /  25.7 km/h 82 % 0.00 in /  0 mm 0 W/m2
16:40 53.8 °F /  12.1 °C 48.1 °F /  8.9 °C 29.70 in /  1005.6 hPa WSW 13.0 mph /  20.9 km/h 20.0 mph /  32.2 km/h 81 % 0.00 in /  0 mm 0 W/m2
16:45 53.8 °F /  12.1 °C 47.8 °F /  8.8 °C 29.70 in /  1005.6 hPa WSW 12.0 mph /  19.3 km/h 21.0 mph /  33.8 km/h 80 % 0.00 in /  0 mm 0 W/m2
16:50 53.8 °F /  12.1 °C 47.4 °F /  8.6 °C 29.70 in /  1005.6 hPa WSW 13.0 mph /  20.9 km/h 21.0 mph /  33.8 km/h 79 % 0.00 in /  0 mm 0 W/m2
17:00 53.6 °F /  12 °C 46.2 °F /  7.9 °C 29.72 in /  1006.3 hPa WSW 22.0 mph /  35.4 km/h 35.0 mph /  56.3 km/h 76 % 0.00 in /  0 mm 0 W/m2
17:05 53.4 °F /  11.9 °C 46.0 °F /  7.8 °C 29.72 in /  1006.3 hPa WSW 20.0 mph /  32.2 km/h 31.0 mph /  49.9 km/h 76 % 0.00 in /  0 mm 0 W/m2
17:10 53.2 °F /  11.8 °C 46.2 °F /  7.9 °C 29.72 in /  1006.3 hPa WSW 16.0 mph /  25.7 km/h 28.0 mph /  45.1 km/h 77 % 0.00 in /  0 mm 0 W/m2
17:15 52.9 °F /  11.6 °C 46.2 °F /  7.9 °C 29.72 in /  1006.3 hPa WSW 13.0 mph /  20.9 km/h 25.0 mph /  40.2 km/h 78 % 0.00 in /  0 mm 0 W/m2
17:20 52.9 °F /  11.6 °C 46.5 °F /  8.1 °C 29.72 in /  1006.3 hPa WSW 15.0 mph /  24.1 km/h 25.0 mph /  40.2 km/h 79 % 0.00 in /  0 mm 0 W/m2
17:25 52.7 °F /  11.5 °C 46.4 °F /  8 °C 29.72 in /  1006.3 hPa WSW 17.0 mph /  27.4 km/h 30.0 mph /  48.3 km/h 79 % 0.00 in /  0 mm 0 W/m2
17:30 52.7 °F /  11.5 °C 46.4 °F /  8 °C 29.72 in /  1006.3 hPa WSW 14.0 mph /  22.5 km/h 25.0 mph /  40.2 km/h 79 % 0.00 in /  0 mm 0 W/m2
17:35 52.5 °F /  11.4 °C 46.2 °F /  7.9 °C 29.73 in /  1006.7 hPa WSW 13.0 mph /  20.9 km/h 20.0 mph /  32.2 km/h 79 % 0.00 in /  0 mm 0 W/m2
17:45 52.3 °F /  11.3 °C 46.0 °F /  7.8 °C 29.73 in /  1006.7 hPa WSW 14.0 mph /  22.5 km/h 24.0 mph /  38.6 km/h 79 % 0.00 in /  0 mm 0 W/m2
17:51 52.3 °F /  11.3 °C 46.0 °F /  7.8 °C 29.73 in /  1006.7 hPa WSW 17.0 mph /  27.4 km/h 25.0 mph /  40.2 km/h 79 % 0.00 in /  0 mm 0 W/m2
17:56 52.3 °F /  11.3 °C 46.0 °F /  7.8 °C 29.74 in /  1007 hPa WSW 14.0 mph /  22.5 km/h 22.0 mph /  35.4 km/h 79 % 0.00 in /  0 mm 0 W/m2
18:01 52.2 °F /  11.2 °C 45.8 °F /  7.7 °C 29.74 in /  1007 hPa WSW 13.0 mph /  20.9 km/h 24.0 mph /  38.6 km/h 79 % 0.00 in /  0 mm 0 W/m2
18:06 52.0 °F /  11.1 °C 45.7 °F /  7.6 °C 29.74 in /  1007 hPa SW 13.0 mph /  20.9 km/h 21.0 mph /  33.8 km/h 79 % 0.00 in /  0 mm 0 W/m2
18:11 51.8 °F /  11 °C 45.5 °F /  7.5 °C 29.74 in /  1007 hPa WSW 10.0 mph /  16.1 km/h 19.0 mph /  30.6 km/h 79 % 0.00 in /  0 mm 0 W/m2
18:16 51.6 °F /  10.9 °C 45.7 °F /  7.6 °C 29.74 in /  1007 hPa WSW 10.0 mph /  16.1 km/h 19.0 mph /  30.6 km/h 80 % 0.00 in /  0 mm 0 W/m2
18:21 51.4 °F /  10.8 °C 45.5 °F /  7.5 °C 29.73 in /  1006.7 hPa WSW 11.0 mph /  17.7 km/h 18.0 mph /  29 km/h 80 % 0.00 in /  0 mm 0 W/m2
18:26 51.4 °F /  10.8 °C 45.5 °F /  7.5 °C 29.73 in /  1006.7 hPa SW 11.0 mph /  17.7 km/h 18.0 mph /  29 km/h 80 % 0.00 in /  0 mm 0 W/m2
18:31 51.4 °F /  10.8 °C 45.1 °F /  7.3 °C 29.74 in /  1007 hPa WSW 10.0 mph /  16.1 km/h 20.0 mph /  32.2 km/h 79 % 0.00 in /  0 mm 0 W/m2
18:36 51.3 °F /  10.7 °C 45.0 °F /  7.2 °C 29.74 in /  1007 hPa WSW 12.0 mph /  19.3 km/h 21.0 mph /  33.8 km/h 79 % 0.00 in /  0 mm 0 W/m2
18:41 51.3 °F /  10.7 °C 45.0 °F /  7.2 °C 29.74 in /  1007 hPa WSW 14.0 mph /  22.5 km/h 22.0 mph /  35.4 km/h 79 % 0.00 in /  0 mm 0 W/m2
18:46 51.3 °F /  10.7 °C 44.6 °F /  7 °C 29.74 in /  1007 hPa WSW 18.0 mph /  29 km/h 29.0 mph /  46.7 km/h 78 % 0.00 in /  0 mm 0 W/m2
18:51 51.3 °F /  10.7 °C 44.6 °F /  7 °C 29.74 in /  1007 hPa WSW 14.0 mph /  22.5 km/h 25.0 mph /  40.2 km/h 78 % 0.00 in /  0 mm 0 W/m2
19:01 51.1 °F /  10.6 °C 44.5 °F /  6.9 °C 29.73 in /  1006.7 hPa WSW 15.0 mph /  24.1 km/h 25.0 mph /  40.2 km/h 78 % 0.00 in /  0 mm 0 W/m2
19:06 51.1 °F /  10.6 °C 44.5 °F /  6.9 °C 29.74 in /  1007 hPa WSW 15.0 mph /  24.1 km/h 23.0 mph /  37 km/h 78 % 0.00 in /  0 mm 0 W/m2
19:11 51.1 °F /  10.6 °C 44.5 °F /  6.9 °C 29.74 in /  1007 hPa WSW 15.0 mph /  24.1 km/h 23.0 mph /  37 km/h 78 % 0.00 in /  0 mm 0 W/m2
19:16 50.9 °F /  10.5 °C 44.3 °F /  6.8 °C 29.74 in /  1007 hPa WSW 16.0 mph /  25.7 km/h 29.0 mph /  46.7 km/h 78 % 0.00 in /  0 mm 0 W/m2
19:21 50.7 °F /  10.4 °C 44.1 °F /  6.7 °C 29.74 in /  1007 hPa WSW 13.0 mph /  20.9 km/h 21.0 mph /  33.8 km/h 78 % 0.00 in /  0 mm 0 W/m2
19:26 50.7 °F /  10.4 °C 44.1 °F /  6.7 °C 29.74 in /  1007 hPa SW 11.0 mph /  17.7 km/h 16.0 mph /  25.7 km/h 78 % 0.00 in /  0 mm 0 W/m2
19:31 50.7 °F /  10.4 °C 44.1 °F /  6.7 °C 29.74 in /  1007 hPa WSW 12.0 mph /  19.3 km/h 20.0 mph /  32.2 km/h 78 % 0.00 in /  0 mm 0 W/m2
19:36 50.5 °F /  10.3 °C 43.9 °F /  6.6 °C 29.74 in /  1007 hPa WSW 8.0 mph /  12.9 km/h 14.0 mph /  22.5 km/h 78 % 0.00 in /  0 mm 0 W/m2
19:41 50.4 °F /  10.2 °C 43.8 °F /  6.6 °C 29.74 in /  1007 hPa WSW 9.0 mph /  14.5 km/h 14.0 mph /  22.5 km/h 78 % 0.00 in /  0 mm 0 W/m2
19:46 50.2 °F /  10.1 °C 43.9 °F /  6.6 °C 29.74 in /  1007 hPa WSW 10.0 mph /  16.1 km/h 15.0 mph /  24.1 km/h 79 % 0.00 in /  0 mm 0 W/m2
19:51 50.2 °F /  10.1 °C 43.9 °F /  6.6 °C 29.75 in /  1007.3 hPa WSW 11.0 mph /  17.7 km/h 16.0 mph /  25.7 km/h 79 % 0.00 in /  0 mm 0 W/m2
19:56 50.0 °F /  10 °C 44.1 °F /  6.7 °C 29.75 in /  1007.3 hPa WSW 12.0 mph /  19.3 km/h 22.0 mph /  35.4 km/h 80 % 0.00 in /  0 mm 0 W/m2
20:01 50.0 °F /  10 °C 43.7 °F /  6.5 °C 29.75 in /  1007.3 hPa WSW 14.0 mph /  22.5 km/h 25.0 mph /  40.2 km/h 79 % 0.00 in /  0 mm 0 W/m2
20:06 50.2 °F /  10.1 °C 43.9 °F /  6.6 °C 29.75 in /  1007.3 hPa WSW 12.0 mph /  19.3 km/h 21.0 mph /  33.8 km/h 79 % 0.00 in /  0 mm 0 W/m2
20:11 50.2 °F /  10.1 °C 43.9 °F /  6.6 °C 29.75 in /  1007.3 hPa WSW 9.0 mph /  14.5 km/h 18.0 mph /  29 km/h 79 % 0.00 in /  0 mm 0 W/m2
20:16 49.8 °F /  9.9 °C 43.9 °F /  6.6 °C 29.76 in /  1007.7 hPa WSW 8.0 mph /  12.9 km/h 14.0 mph /  22.5 km/h 80 % 0.00 in /  0 mm 0 W/m2
20:21 49.6 °F /  9.8 °C 43.7 °F /  6.5 °C 29.76 in /  1007.7 hPa WSW 9.0 mph /  14.5 km/h 13.0 mph /  20.9 km/h 80 % 0.00 in /  0 mm 0 W/m2
20:26 49.6 °F /  9.8 °C 43.7 °F /  6.5 °C 29.76 in /  1007.7 hPa SW 9.0 mph /  14.5 km/h 13.0 mph /  20.9 km/h 80 % 0.00 in /  0 mm 0 W/m2
20:31 49.8 °F /  9.9 °C 43.9 °F /  6.6 °C 29.75 in /  1007.3 hPa SW 9.0 mph /  14.5 km/h 15.0 mph /  24.1 km/h 80 % 0.00 in /  0 mm 0 W/m2
20:41 49.6 °F /  9.8 °C 43.7 °F /  6.5 °C 29.76 in /  1007.7 hPa SW 8.0 mph /  12.9 km/h 11.0 mph /  17.7 km/h 80 % 0.00 in /  0 mm 0 W/m2
20:46 49.6 °F /  9.8 °C 43.7 °F /  6.5 °C 29.76 in /  1007.7 hPa SSW 5.0 mph /  8 km/h 9.0 mph /  14.5 km/h 80 % 0.00 in /  0 mm 0 W/m2
20:56 49.5 °F /  9.7 °C 43.9 °F /  6.6 °C 29.76 in /  1007.7 hPa SW 7.0 mph /  11.3 km/h 11.0 mph /  17.7 km/h 81 % 0.00 in /  0 mm 0 W/m2
21:01 49.6 °F /  9.8 °C 44.0 °F /  6.7 °C 29.76 in /  1007.7 hPa SW 6.0 mph /  9.7 km/h 10.0 mph /  16.1 km/h 81 % 0.00 in /  0 mm 0 W/m2
21:07 49.5 °F /  9.7 °C 43.9 °F /  6.6 °C 29.76 in /  1007.7 hPa SW 6.0 mph /  9.7 km/h 9.0 mph /  14.5 km/h 81 % 0.00 in /  0 mm 0 W/m2
21:12 49.5 °F /  9.7 °C 43.9 °F /  6.6 °C 29.75 in /  1007.3 hPa SW 6.0 mph /  9.7 km/h 8.0 mph /  12.9 km/h 81 % 0.00 in /  0 mm 0 W/m2
21:16 49.5 °F /  9.7 °C 43.9 °F /  6.6 °C 29.75 in /  1007.3 hPa SW 4.0 mph /  6.4 km/h 7.0 mph /  11.3 km/h 81 % 0.00 in /  0 mm 0 W/m2
21:27 49.6 °F /  9.8 °C 44.0 °F /  6.7 °C 29.75 in /  1007.3 hPa SW 6.0 mph /  9.7 km/h 12.0 mph /  19.3 km/h 81 % 0.00 in /  0 mm 0 W/m2
21:32 49.5 °F /  9.7 °C 43.9 °F /  6.6 °C 29.75 in /  1007.3 hPa SW 8.0 mph /  12.9 km/h 13.0 mph /  20.9 km/h 81 % 0.00 in /  0 mm 0 W/m2
21:37 49.6 °F /  9.8 °C 44.0 °F /  6.7 °C 29.76 in /  1007.7 hPa SSW 7.0 mph /  11.3 km/h 10.0 mph /  16.1 km/h 81 % 0.00 in /  0 mm 0 W/m2
21:42 49.6 °F /  9.8 °C 44.4 °F /  6.9 °C 29.76 in /  1007.7 hPa SSW 8.0 mph /  12.9 km/h 14.0 mph /  22.5 km/h 82 % 0.00 in /  0 mm 0 W/m2
21:47 49.6 °F /  9.8 °C 44.0 °F /  6.7 °C 29.75 in /  1007.3 hPa SSW 4.0 mph /  6.4 km/h 8.0 mph /  12.9 km/h 81 % 0.00 in /  0 mm 0 W/m2
21:52 49.6 °F /  9.8 °C 44.4 °F /  6.9 °C 29.75 in /  1007.3 hPa SSW 7.0 mph /  11.3 km/h 11.0 mph /  17.7 km/h 82 % 0.00 in /  0 mm 0 W/m2
21:57 49.6 °F /  9.8 °C 44.4 °F /  6.9 °C 29.76 in /  1007.7 hPa SW 9.0 mph /  14.5 km/h 12.0 mph /  19.3 km/h 82 % 0.00 in /  0 mm 0 W/m2
22:02 49.8 °F /  9.9 °C 44.5 °F /  6.9 °C 29.75 in /  1007.3 hPa SSW 9.0 mph /  14.5 km/h 14.0 mph /  22.5 km/h 82 % 0.00 in /  0 mm 0 W/m2
22:07 50.0 °F /  10 °C 44.7 °F /  7.1 °C 29.75 in /  1007.3 hPa SSW 12.0 mph /  19.3 km/h 22.0 mph /  35.4 km/h 82 % 0.00 in /  0 mm 0 W/m2
22:12 50.2 °F /  10.1 °C 44.9 °F /  7.2 °C 29.75 in /  1007.3 hPa South 8.0 mph /  12.9 km/h 14.0 mph /  22.5 km/h 82 % 0.00 in /  0 mm 0 W/m2
22:13 50.2 °F /  10.1 °C 44.9 °F /  7.2 °C 29.75 in /  1007.3 hPa South 6.0 mph /  9.7 km/h 11.0 mph /  17.7 km/h 82 % 0.00 in /  0 mm 0 W/m2
22:18 50.0 °F /  10 °C 44.7 °F /  7.1 °C 29.75 in /  1007.3 hPa South 6.0 mph /  9.7 km/h 14.0 mph /  22.5 km/h 82 % 0.00 in /  0 mm 0 W/m2
22:23 50.0 °F /  10 °C 44.7 °F /  7.1 °C 29.75 in /  1007.3 hPa SSW 10.0 mph /  16.1 km/h 15.0 mph /  24.1 km/h 82 % 0.00 in /  0 mm 0 W/m2
22:28 49.8 °F /  9.9 °C 44.9 °F /  7.2 °C 29.75 in /  1007.3 hPa South 6.0 mph /  9.7 km/h 9.0 mph /  14.5 km/h 83 % 0.00 in /  0 mm 0 W/m2
22:33 49.8 °F /  9.9 °C 44.9 °F /  7.2 °C 29.74 in /  1007 hPa SSW 8.0 mph /  12.9 km/h 14.0 mph /  22.5 km/h 83 % 0.00 in /  0 mm 0 W/m2
22:38 49.8 °F /  9.9 °C 44.9 °F /  7.2 °C 29.74 in /  1007 hPa SSW 7.0 mph /  11.3 km/h 12.0 mph /  19.3 km/h 83 % 0.00 in /  0 mm 0 W/m2
22:43 49.6 °F /  9.8 °C 44.7 °F /  7.1 °C 29.74 in /  1007 hPa South 10.0 mph /  16.1 km/h 15.0 mph /  24.1 km/h 83 % 0.00 in /  0 mm 0 W/m2
22:48 49.6 °F /  9.8 °C 44.7 °F /  7.1 °C 29.74 in /  1007 hPa SSW 8.0 mph /  12.9 km/h 13.0 mph /  20.9 km/h 83 % 0.00 in /  0 mm 0 W/m2
22:53 49.6 °F /  9.8 °C 44.7 °F /  7.1 °C 29.74 in /  1007 hPa SSW 10.0 mph /  16.1 km/h 15.0 mph /  24.1 km/h 83 % 0.00 in /  0 mm 0 W/m2
22:58 49.6 °F /  9.8 °C 44.7 °F /  7.1 °C 29.74 in /  1007 hPa SSW 7.0 mph /  11.3 km/h 12.0 mph /  19.3 km/h 83 % 0.00 in /  0 mm 0 W/m2
23:03 49.6 °F /  9.8 °C 44.7 °F /  7.1 °C 29.73 in /  1006.7 hPa SSW 9.0 mph /  14.5 km/h 15.0 mph /  24.1 km/h 83 % 0.00 in /  0 mm 0 W/m2
23:09 49.6 °F /  9.8 °C 44.4 °F /  6.9 °C 29.73 in /  1006.7 hPa SSW 5.0 mph /  8 km/h 7.0 mph /  11.3 km/h 82 % 0.00 in /  0 mm 0 W/m2
23:14 49.5 °F /  9.7 °C 44.2 °F /  6.8 °C 29.72 in /  1006.3 hPa SW 5.0 mph /  8 km/h 9.0 mph /  14.5 km/h 82 % 0.00 in /  0 mm 0 W/m2
23:19 49.5 °F /  9.7 °C 44.5 °F /  6.9 °C 29.72 in /  1006.3 hPa SSW 10.0 mph /  16.1 km/h 18.0 mph /  29 km/h 83 % 0.00 in /  0 mm 0 W/m2
23:24 49.5 °F /  9.7 °C 44.5 °F /  6.9 °C 29.72 in /  1006.3 hPa SW 9.0 mph /  14.5 km/h 16.0 mph /  25.7 km/h 83 % 0.00 in /  0 mm 0 W/m2
23:29 49.6 °F /  9.8 °C 44.7 °F /  7.1 °C 29.72 in /  1006.3 hPa SSW 11.0 mph /  17.7 km/h 21.0 mph /  33.8 km/h 83 % 0.00 in /  0 mm 0 W/m2
23:34 49.8 °F /  9.9 °C 44.9 °F /  7.2 °C 29.72 in /  1006.3 hPa SSW 10.0 mph /  16.1 km/h 18.0 mph /  29 km/h 83 % 0.00 in /  0 mm 0 W/m2
23:39 50.0 °F /  10 °C 44.7 °F /  7.1 °C 29.71 in /  1006 hPa SW 10.0 mph /  16.1 km/h 14.0 mph /  22.5 km/h 82 % 0.00 in /  0 mm 0 W/m2
23:44 50.0 °F /  10 °C 45.0 °F /  7.2 °C 29.71 in /  1006 hPa SSW 11.0 mph /  17.7 km/h 19.0 mph /  30.6 km/h 83 % 0.00 in /  0 mm 0 W/m2
23:54 50.2 °F /  10.1 °C 44.9 °F /  7.2 °C 29.70 in /  1005.6 hPa SSW 8.0 mph /  12.9 km/h 15.0 mph /  24.1 km/h 82 % 0.00 in /  0 mm 0 W/m2
23:59 50.0 °F /  10 °C 45.0 °F /  7.2 °C 29.69 in /  1005.3 hPa SSW 10.0 mph /  16.1 km/h 18.0 mph /  29 km/h 83 % 0.00 in /  0 mm 0 W/m2
Delerius-Weather
Compliments of Weather Underground - 2 mb

Data updates at regular intervals.